Time;durP1;ratioP1;P1;durP2;ratioP2;P2;SDS_P1;SDS_P2;PMS_P1;PMS_P2;Temp;Humidity;BMP_temperature;BMP_pressure;BME280_temperature;BME280_humidity;BME280_pressure;Samples;Min_cycle;Max_cycle;Signal;HPM_P1;HPM_P2
2023/04/13 00:00:29;;;;;;;3.80;0.80;;;7.00;99.90;;;;;;5073482;28;20119;-53
2023/04/13 00:02:55;;;;;;;2.03;0.80;;;7.10;99.90;;;;;;5072088;28;20079;-50
2023/04/13 00:05:22;;;;;;;2.23;0.83;;;7.20;99.90;;;;;;5073247;28;20056;-53
2023/04/13 00:07:48;;;;;;;2.97;1.00;;;7.10;99.90;;;;;;5073192;28;20028;-53
2023/04/13 00:10:20;;;;;;;1.93;0.50;;;7.20;99.90;;;;;;5073729;28;20073;-51
2023/04/13 00:12:47;;;;;;;2.30;0.90;;;7.20;99.90;;;;;;5073438;28;20036;-52
2023/04/13 00:15:18;;;;;;;2.50;1.20;;;7.20;99.90;;;;;;5073232;28;20111;-52
2023/04/13 00:17:46;;;;;;;3.50;0.60;;;7.30;99.90;;;;;;5073085;28;20028;-51
2023/04/13 00:20:13;;;;;;;2.03;0.80;;;7.20;99.90;;;;;;5073141;28;20028;-51
2023/04/13 00:22:43;;;;;;;2.50;0.77;;;7.30;99.90;;;;;;5073381;28;20032;-54
2023/04/13 00:25:13;;;;;;;;;;;7.30;99.90;;;;;;5073395;28;20035;-52
2023/04/13 00:27:39;;;;;;;5.47;1.20;;;7.40;99.90;;;;;;5072940;28;20387;-53
2023/04/13 00:30:10;;;;;;;3.63;1.10;;;7.40;99.90;;;;;;5071826;28;20064;-53
2023/04/13 00:32:38;;;;;;;2.40;0.60;;;7.30;99.90;;;;;;5071841;28;20119;-50
2023/04/13 00:35:04;;;;;;;4.97;1.00;;;7.30;99.90;;;;;;5071423;28;20068;-51
2023/04/13 00:37:31;;;;;;;4.47;0.93;;;7.30;99.90;;;;;;5071696;28;20543;-51
2023/04/13 00:39:58;;;;;;;2.90;0.80;;;7.20;99.90;;;;;;5072865;28;20250;-48
2023/04/13 00:42:24;;;;;;;2.53;0.70;;;7.10;99.90;;;;;;5073213;28;20055;-53
2023/04/13 00:44:53;;;;;;;2.00;0.60;;;7.00;99.90;;;;;;5072804;28;20115;-52
2023/04/13 00:47:26;;;;;;;2.50;0.60;;;6.90;99.90;;;;;;5071549;28;20035;-51
2023/04/13 00:49:55;;;;;;;2.73;0.80;;;6.80;99.90;;;;;;5071488;28;20032;-53
2023/04/13 00:52:21;;;;;;;2.97;0.60;;;6.70;99.90;;;;;;5072973;28;20025;-53
2023/04/13 00:54:51;;;;;;;4.63;0.60;;;6.60;99.90;;;;;;5071462;28;20397;-51
2023/04/13 00:57:18;;;;;;;4.22;0.82;;;6.50;99.90;;;;;;5071296;28;20166;-51
2023/04/13 00:59:44;;;;;;;6.60;0.80;;;6.50;99.90;;;;;;5072771;28;20493;-53
2023/04/13 01:02:10;;;;;;;3.57;0.60;;;6.40;99.90;;;;;;5072664;28;20028;-51
2023/04/13 01:04:36;;;;;;;5.63;0.80;;;6.40;99.90;;;;;;5072654;28;20458;-54
2023/04/13 01:07:21;;;;;;;1.97;0.50;;;6.40;99.90;;;;;;5072677;28;20028;-52
2023/04/13 01:10:05;;;;;;;4.10;0.83;;;6.40;99.90;;;;;;5072494;28;20064;-50
2023/04/13 01:12:48;;;;;;;4.60;0.93;;;6.40;99.90;;;;;;5054479;28;20035;-51
2023/04/13 01:15:17;;;;;;;2.37;0.50;;;6.40;99.90;;;;;;5054336;28;20028;-49
2023/04/13 01:17:51;;;;;;;3.22;0.50;;;6.50;99.90;;;;;;5070817;28;20037;-53
2023/04/13 01:20:23;;;;;;;2.47;0.63;;;6.50;99.90;;;;;;5070909;28;20033;-49
2023/04/13 01:22:56;;;;;;;3.80;0.80;;;6.50;99.90;;;;;;5070524;28;20540;-50
2023/04/13 01:25:56;;;;;;;2.13;0.60;;;6.50;99.90;;;;;;5071192;28;20159;-54
2023/04/13 01:28:24;;;;;;;2.33;0.70;;;6.60;99.90;;;;;;5069684;28;20067;-50
2023/04/13 01:30:52;;;;;;;3.27;0.50;;;6.60;99.90;;;;;;5069900;28;20520;-49
2023/04/13 01:33:21;;;;;;;4.38;0.80;;;6.70;99.90;;;;;;5068993;28;20028;-54
2023/04/13 01:35:49;;;;;;;7.17;1.07;;;6.70;99.90;;;;;;5071034;28;20031;-51
2023/04/13 01:38:23;;;;;;;5.47;0.80;;;6.80;99.90;;;;;;5069628;28;20032;-54
2023/04/13 01:40:51;;;;;;;3.77;0.50;;;6.80;99.90;;;;;;5069656;28;20031;-51
2023/04/13 01:43:19;;;;;;;6.97;0.60;;;6.90;99.90;;;;;;5069479;28;20039;-52
2023/04/13 01:46:08;;;;;;;0.93;0.30;;;6.80;99.90;;;;;;5069545;28;20028;-51
2023/04/13 01:48:50;;;;;;;3.47;0.60;;;7.00;99.90;;;;;;5069447;28;20020;-50
2023/04/13 01:51:42;;;;;;;5.90;0.93;;;7.10;99.90;;;;;;5033140;28;20028;-50
2023/04/13 01:54:21;;;;;;;5.17;0.83;;;7.10;99.90;;;;;;5069279;28;20021;-50
2023/04/13 01:56:49;;;;;;;3.43;0.70;;;7.10;99.90;;;;;;5069598;28;20059;-49
2023/04/13 01:59:15;;;;;;;3.53;0.80;;;7.20;99.90;;;;;;5069444;28;20392;-52
2023/04/13 02:01:42;;;;;;;3.03;0.70;;;7.20;99.90;;;;;;5069594;28;20374;-49
2023/04/13 02:04:08;;;;;;;5.43;0.77;;;7.30;99.90;;;;;;5069181;28;20435;-49
2023/04/13 02:06:36;;;;;;;3.27;0.50;;;7.30;99.90;;;;;;5069304;28;20270;-51
2023/04/13 02:09:07;;;;;;;4.00;0.98;;;7.30;99.90;;;;;;5069219;28;20025;-50
2023/04/13 02:11:34;;;;;;;5.75;1.10;;;7.30;99.90;;;;;;5070678;28;20461;-52
2023/04/13 02:14:04;;;;;;;1.77;0.43;;;7.40;99.90;;;;;;5069079;28;20031;-51
2023/04/13 02:16:30;;;;;;;3.37;0.70;;;7.30;99.90;;;;;;5069110;28;20033;-49
2023/04/13 02:18:59;;;;;;;4.50;0.70;;;7.30;99.90;;;;;;5069277;28;20024;-53
2023/04/13 02:21:25;;;;;;;3.67;0.63;;;7.20;99.90;;;;;;5069153;28;20073;-53
2023/04/13 02:23:51;;;;;;;3.53;0.40;;;7.20;99.90;;;;;;5031668;28;1109235;-51
2023/04/13 02:26:18;;;;;;;3.10;0.77;;;7.20;99.90;;;;;;5069772;28;20115;-50
2023/04/13 02:28:47;;;;;;;5.23;1.17;;;7.20;99.90;;;;;;5069786;28;20055;-49
2023/04/13 02:31:15;;;;;;;1.77;0.57;;;7.30;99.90;;;;;;5069918;28;20124;-50
2023/04/13 02:33:43;;;;;;;3.60;0.70;;;7.30;99.90;;;;;;5070900;28;20032;-49
2023/04/13 02:36:09;;;;;;;5.07;0.90;;;7.30;99.90;;;;;;5071050;28;20107;-48
2023/04/13 02:38:39;;;;;;;5.30;0.70;;;7.30;99.90;;;;;;5069392;28;20139;-51
2023/04/13 02:41:11;;;;;;;2.33;0.50;;;7.30;99.90;;;;;;5069774;28;20025;-50
2023/04/13 02:43:37;;;;;;;3.37;0.77;;;7.30;99.90;;;;;;5069468;28;20032;-49
2023/04/13 02:46:03;;;;;;;4.97;0.80;;;7.40;99.90;;;;;;5068893;28;20318;-50
2023/04/13 02:48:34;;;;;;;3.73;1.20;;;7.40;99.90;;;;;;5069384;28;20077;-49
2023/04/13 02:51:03;;;;;;;3.50;0.73;;;7.40;99.90;;;;;;5069740;28;20063;-51
2023/04/13 02:53:32;;;;;;;3.10;0.80;;;7.40;99.90;;;;;;5069420;28;20094;-52
2023/04/13 02:56:04;;;;;;;3.60;0.80;;;7.50;99.90;;;;;;5069665;28;20036;-50
2023/04/13 02:58:30;;;;;;;3.37;1.07;;;7.40;99.90;;;;;;5069356;28;20519;-53
2023/04/13 03:00:59;;;;;;;2.38;0.80;;;7.50;99.90;;;;;;5069668;28;20029;-49
2023/04/13 03:03:26;;;;;;;4.70;0.70;;;7.50;99.90;;;;;;5069229;28;20156;-50
2023/04/13 03:05:51;;;;;;;3.73;0.70;;;7.50;99.90;;;;;;5069619;28;20062;-53
2023/04/13 03:08:26;;;;;;;8.27;1.63;;;7.50;99.90;;;;;;5069119;28;20056;-52
2023/04/13 03:11:15;;;;;;;3.42;0.70;;;7.60;99.90;;;;;;5070906;28;20025;-49
2023/04/13 03:13:47;;;;;;;5.23;0.70;;;7.60;99.90;;;;;;5069082;28;20025;-49
2023/04/13 03:16:16;;;;;;;5.57;1.50;;;7.60;99.90;;;;;;5069060;28;20558;-52
2023/04/13 03:18:44;;;;;;;3.70;0.57;;;7.60;99.90;;;;;;5069210;28;20032;-51
2023/04/13 03:21:11;;;;;;;6.67;0.83;;;7.70;99.90;;;;;;5069183;28;20489;-48
2023/04/13 03:23:46;;;;;;;3.53;1.20;;;7.70;99.90;;;;;;5068837;28;20043;-53
2023/04/13 03:26:14;;;;;;;7.70;0.80;;;7.60;99.90;;;;;;5069033;28;20393;-50
2023/04/13 03:28:40;;;;;;;4.03;0.70;;;7.50;99.90;;;;;;5069038;28;20050;-52
2023/04/13 03:31:06;;;;;;;3.27;0.50;;;7.50;99.90;;;;;;5069276;28;20083;-49
2023/04/13 03:33:36;;;;;;;3.03;0.60;;;7.50;99.90;;;;;;5068933;28;20028;-51
2023/04/13 03:36:02;;;;;;;3.40;0.70;;;7.50;99.90;;;;;;5069179;28;20037;-51
2023/04/13 03:38:33;;;;;;;2.87;0.70;;;7.40;99.90;;;;;;5068855;28;20056;-52
2023/04/13 03:41:00;;;;;;;4.03;0.70;;;7.40;99.90;;;;;;5069148;28;20082;-50
2023/04/13 03:43:27;;;;;;;3.40;0.70;;;7.50;99.90;;;;;;5068903;28;20033;-52
2023/04/13 03:46:00;;;;;;;2.33;0.60;;;7.50;99.90;;;;;;5068957;28;20498;-51
2023/04/13 03:48:26;;;;;;;3.37;0.60;;;7.50;99.90;;;;;;5070172;28;20106;-48
2023/04/13 03:50:52;;;;;;;4.13;1.30;;;7.50;99.90;;;;;;5068883;28;20024;-53
2023/04/13 03:53:23;;;;;;;3.20;0.57;;;7.50;99.90;;;;;;5069932;28;20033;-49
2023/04/13 03:55:53;;;;;;;;;;;7.50;99.90;;;;;;5069798;28;20447;-49
2023/04/13 03:58:19;;;;;;;2.93;0.50;;;7.50;99.90;;;;;;5071941;28;19912;-51
2023/04/13 04:00:45;;;;;;;7.43;0.80;;;7.50;99.90;;;;;;5072505;28;20024;-48
2023/04/13 04:03:21;;;;;;;5.73;0.87;;;7.40;99.90;;;;;;5072319;28;20083;-48
2023/04/13 04:05:52;;;;;;;3.30;0.70;;;7.40;99.90;;;;;;5072429;28;20039;-50
2023/04/13 04:08:18;;;;;;;2.43;0.70;;;7.30;99.90;;;;;;5072232;28;20017;-50
2023/04/13 04:10:45;;;;;;;1.60;0.50;;;7.30;99.90;;;;;;5072380;28;20409;-50
2023/04/13 04:13:12;;;;;;;3.77;0.60;;;7.20;99.90;;;;;;5073494;28;20431;-50
2023/04/13 04:15:43;;;;;;;4.03;0.77;;;7.20;99.90;;;;;;5072271;28;20492;-50
2023/04/13 04:18:09;;;;;;;1.93;0.50;;;7.20;99.90;;;;;;5071968;28;20146;-47
2023/04/13 04:20:37;;;;;;;2.53;0.60;;;7.20;99.90;;;;;;5072177;28;20059;-51
2023/04/13 04:23:04;;;;;;;9.33;1.00;;;7.20;99.90;;;;;;5071822;28;20554;-50
2023/04/13 04:25:38;;;;;;;2.67;0.70;;;7.20;99.90;;;;;;5071783;28;20035;-50
2023/04/13 04:28:05;;;;;;;4.47;0.80;;;7.20;99.90;;;;;;5071805;28;20032;-51
2023/04/13 04:30:32;;;;;;;3.23;0.80;;;7.20;99.90;;;;;;5055216;28;20388;-50
2023/04/13 04:33:00;;;;;;;4.37;1.07;;;7.20;99.90;;;;;;5055082;28;20024;-50
2023/04/13 04:35:33;;;;;;;7.67;1.30;;;7.20;99.90;;;;;;5071511;28;20116;-52
2023/04/13 04:38:03;;;;;;;5.03;1.40;;;7.20;99.90;;;;;;5071473;28;20064;-50
2023/04/13 04:40:30;;;;;;;4.90;1.10;;;7.30;99.90;;;;;;5071550;28;20060;-51
2023/04/13 04:42:57;;;;;;;2.13;0.70;;;7.30;99.90;;;;;;5071444;28;20464;-48
2023/04/13 04:45:35;;;;;;;5.33;0.90;;;7.30;99.90;;;;;;5071265;28;20576;-52
2023/04/13 04:48:02;;;;;;;9.20;1.77;;;7.30;99.90;;;;;;5071295;28;20122;-48
2023/04/13 04:50:30;;;;;;;4.07;1.10;;;7.30;99.90;;;;;;5071294;28;20020;-49
2023/04/13 04:53:05;;;;;;;2.93;1.00;;;7.20;99.90;;;;;;5071252;28;20028;-49
2023/04/13 04:55:32;;;;;;;3.53;1.00;;;7.30;99.90;;;;;;5072199;28;20047;-51
2023/04/13 04:57:58;;;;;;;4.43;1.20;;;7.20;99.90;;;;;;5072838;28;20028;-52
2023/04/13 05:00:29;;;;;;;5.67;1.07;;;7.20;99.90;;;;;;5071136;28;20033;-50
2023/04/13 05:03:15;;;;;;;2.80;1.30;;;7.20;99.90;;;;;;5071118;28;20761;-49
2023/04/13 05:05:45;;;;;;;5.03;1.33;;;7.20;99.90;;;;;;5071047;28;20067;-49
2023/04/13 05:08:17;;;;;;;5.33;1.33;;;7.20;99.90;;;;;;5069963;28;20025;-49
2023/04/13 05:10:46;;;;;;;8.15;1.75;;;7.20;99.90;;;;;;5071008;28;20086;-52
2023/04/13 05:13:12;;;;;;;4.80;1.30;;;7.10;99.90;;;;;;5072104;28;20040;-52
2023/04/13 05:15:40;;;;;;;5.32;1.52;;;7.10;99.90;;;;;;5070731;28;20033;-53
2023/04/13 05:18:06;;;;;;;13.17;5.97;;;7.10;99.90;;;;;;5070541;28;20059;-52
2023/04/13 05:20:33;;;;;;;3.60;1.40;;;7.10;99.90;;;;;;5070513;28;20036;-51
2023/04/13 05:23:03;;;;;;;4.47;1.30;;;7.10;99.90;;;;;;5070533;28;20047;-51
2023/04/13 05:25:33;;;;;;;4.40;1.40;;;7.20;99.90;;;;;;5070407;28;20037;-50
2023/04/13 05:28:04;;;;;;;3.50;1.17;;;7.20;99.90;;;;;;5070396;28;20025;-51
2023/04/13 05:30:31;;;;;;;2.60;1.20;;;7.20;99.90;;;;;;5071681;28;20025;-49
2023/04/13 05:32:57;;;;;;;6.70;1.70;;;7.30;99.90;;;;;;5070270;28;20048;-50
2023/04/13 05:35:25;;;;;;;6.93;1.90;;;7.30;99.90;;;;;;5070143;28;20037;-50
2023/04/13 05:37:51;;;;;;;6.70;1.90;;;7.30;99.90;;;;;;5070146;28;20025;-53
2023/04/13 05:40:21;;;;;;;9.10;2.70;;;7.40;99.90;;;;;;5070251;28;20025;-50
2023/04/13 05:42:47;;;;;;;6.57;2.50;;;7.40;99.90;;;;;;5070274;28;20397;-51
2023/04/13 05:45:19;;;;;;;7.63;2.30;;;7.50;99.90;;;;;;5053878;28;20032;-49
2023/04/13 05:48:05;;;;;;;6.93;2.70;;;7.50;99.90;;;;;;5070789;28;20029;-51
2023/04/13 05:50:31;;;;;;;10.67;3.23;;;7.50;99.90;;;;;;5071414;28;20025;-52
2023/04/13 05:52:57;;;;;;;6.70;2.70;;;7.50;99.90;;;;;;5069979;28;20503;-52
2023/04/13 05:55:25;;;;;;;9.73;3.20;;;7.70;99.90;;;;;;5069829;28;20492;-53
2023/04/13 05:57:59;;;;;;;10.67;4.07;;;7.80;99.90;;;;;;5069702;28;20055;-51
2023/04/13 06:00:26;;;;;;;9.07;3.77;;;7.70;99.90;;;;;;5071356;28;20025;-53
2023/04/13 06:03:00;;;;;;;8.70;3.87;;;7.80;99.90;;;;;;5069738;28;20025;-48
2023/04/13 06:05:27;;;;;;;7.63;4.03;;;7.90;99.90;;;;;;5069376;28;20515;-51
2023/04/13 06:07:53;;;;;;;8.80;4.37;;;8.00;99.90;;;;;;5069601;28;20028;-49
2023/04/13 06:10:19;;;;;;;8.47;3.47;;;8.00;99.90;;;;;;5069528;28;20441;-50
2023/04/13 06:12:47;;;;;;;6.47;3.10;;;8.00;99.90;;;;;;5070809;28;20028;-48
2023/04/13 06:15:13;;;;;;;8.87;3.10;;;8.10;99.90;;;;;;5069447;28;20469;-50
2023/04/13 06:17:40;;;;;;;11.50;3.53;;;8.10;99.90;;;;;;5070980;28;20412;-49
2023/04/13 06:20:07;;;;;;;8.47;3.30;;;8.10;99.90;;;;;;5069397;28;20033;-47
2023/04/13 06:22:33;;;;;;;7.50;2.57;;;8.10;99.90;;;;;;5069477;28;20028;-52
2023/04/13 06:25:00;;;;;;;6.93;2.20;;;8.20;99.90;;;;;;5069234;28;20032;-49
2023/04/13 06:27:32;;;;;;;6.45;1.80;;;8.10;99.90;;;;;;5069586;28;20029;-51
2023/04/13 06:30:00;;;;;;;8.17;2.17;;;8.20;99.90;;;;;;5069510;28;20029;-52
2023/04/13 06:32:29;;;;;;;5.37;1.90;;;8.20;99.90;;;;;;5069387;28;20429;-50
2023/04/13 06:34:55;;;;;;;5.77;1.67;;;8.20;99.90;;;;;;5069222;28;20071;-49
2023/04/13 06:37:22;;;;;;;3.03;1.57;;;8.20;99.90;;;;;;5052695;28;20035;-50
2023/04/13 06:39:50;;;;;;;8.00;2.30;;;8.20;99.90;;;;;;5069457;28;20512;-52
2023/04/13 06:42:17;;;;;;;4.00;1.73;;;8.10;99.90;;;;;;5069218;28;20039;-50
2023/04/13 06:44:57;;;;;;;8.67;3.00;;;8.10;99.90;;;;;;5069136;28;20165;-49
2023/04/13 06:47:24;;;;;;;8.37;2.60;;;8.10;99.90;;;;;;5068939;28;20028;-50
2023/04/13 06:49:52;;;;;;;6.83;2.90;;;8.10;99.90;;;;;;5069103;28;20036;-51
2023/04/13 06:52:17;;;;;;;10.77;2.80;;;8.20;99.90;;;;;;5069071;28;20032;-52
2023/04/13 06:54:43;;;;;;;3.73;2.10;;;8.10;99.90;;;;;;5068888;28;20028;-51
2023/04/13 06:57:23;;;;;;;7.87;2.30;;;8.10;99.90;;;;;;5068937;28;20140;-51
2023/04/13 06:59:49;;;;;;;7.93;1.73;;;8.20;99.90;;;;;;5069205;28;20063;-49
2023/04/13 07:02:16;;;;;;;5.63;1.83;;;8.40;99.90;;;;;;5068901;28;20032;-50
2023/04/13 07:04:42;;;;;;;6.63;2.00;;;8.50;99.90;;;;;;5070008;28;20032;-51
2023/04/13 07:07:08;;;;;;;8.13;2.00;;;8.70;99.90;;;;;;5069181;28;20020;-51
2023/04/13 07:09:34;;;;;;;5.53;1.60;;;8.80;99.90;;;;;;5068985;28;20035;-53
2023/04/13 07:12:04;;;;;;;5.80;1.20;;;9.00;99.90;;;;;;5069156;28;20385;-52
2023/04/13 07:14:37;;;;;;;6.60;1.40;;;9.10;99.90;;;;;;5068453;28;20036;-50
2023/04/13 07:17:04;;;;;;;6.53;1.57;;;9.10;99.90;;;;;;5068679;28;20021;-52
2023/04/13 07:19:33;;;;;;;3.33;1.20;;;9.10;99.90;;;;;;5068872;28;20029;-48
2023/04/13 07:22:00;;;;;;;5.67;1.40;;;8.90;99.90;;;;;;5068928;28;20025;-48
2023/04/13 07:24:28;;;;;;;7.97;1.50;;;8.90;99.90;;;;;;5068401;28;20035;-53
2023/04/13 07:26:58;;;;;;;10.80;1.43;;;8.80;99.90;;;;;;5068629;28;20043;-49
2023/04/13 07:29:27;;;;;;;5.22;1.20;;;8.70;99.90;;;;;;5069122;28;20028;-52
2023/04/13 07:32:00;;;;;;;7.33;1.73;;;8.80;99.90;;;;;;5069899;28;20504;-52
2023/04/13 07:34:26;;;;;;;9.77;4.73;;;8.70;99.90;;;;;;5072268;28;20028;-50
2023/04/13 07:36:52;;;;;;;4.17;1.20;;;8.70;99.90;;;;;;5072433;28;20481;-50
2023/04/13 07:39:20;;;;;;;3.40;1.00;;;8.60;99.90;;;;;;5073832;28;20021;-51
2023/04/13 07:41:47;;;;;;;4.13;1.37;;;8.60;99.90;;;;;;5072628;28;20056;-48
2023/04/13 07:44:18;;;;;;;8.83;4.27;;;8.60;99.90;;;;;;5072197;28;20052;-53
2023/04/13 07:46:44;;;;;;;6.20;2.00;;;8.60;99.90;;;;;;5072191;28;20184;-49
2023/04/13 07:49:10;;;;;;;9.33;3.47;;;8.60;99.90;;;;;;5072319;28;20024;-51
2023/04/13 07:51:37;;;;;;;5.90;1.43;;;8.60;99.90;;;;;;5072300;28;20366;-52
2023/04/13 07:54:03;;;;;;;6.20;1.43;;;8.60;99.90;;;;;;5071969;28;20028;-52
2023/04/13 07:56:31;;;;;;;5.00;1.50;;;8.50;99.90;;;;;;5072079;28;20028;-52
2023/04/13 07:58:59;;;;;;;5.90;1.53;;;8.60;99.90;;;;;;5071984;28;20500;-48
2023/04/13 08:01:25;;;;;;;7.20;2.30;;;8.60;99.90;;;;;;5072007;28;20071;-51
2023/04/13 08:03:51;;;;;;;9.20;2.00;;;8.70;99.90;;;;;;5071758;28;20504;-49
2023/04/13 08:06:22;;;;;;;10.33;2.30;;;8.70;99.90;;;;;;5071830;28;20561;-51
2023/04/13 08:08:49;;;;;;;6.57;2.13;;;8.80;99.90;;;;;;5073176;28;20025;-50
2023/04/13 08:11:15;;;;;;;7.30;1.73;;;8.90;99.90;;;;;;5071955;28;20021;-48
2023/04/13 08:13:43;;;;;;;6.93;1.90;;;9.00;99.90;;;;;;5071514;28;20106;-49
2023/04/13 08:16:10;;;;;;;15.00;2.10;;;8.90;99.90;;;;;;5071829;28;20032;-47
2023/04/13 08:18:37;;;;;;;6.10;1.67;;;8.90;99.90;;;;;;5071510;28;20028;-47
2023/04/13 08:21:11;;;;;;;3.57;1.40;;;8.90;99.90;;;;;;5071901;28;20405;-50
2023/04/13 08:23:42;;;;;;;7.20;1.90;;;8.90;99.90;;;;;;5071276;28;20098;-50
2023/04/13 08:26:26;;;;;;;9.93;1.83;;;9.00;99.90;;;;;;5071488;28;20131;-48
2023/04/13 08:28:52;;;;;;;8.40;1.83;;;9.10;99.90;;;;;;5071491;28;20115;-50
2023/04/13 08:31:19;;;;;;;5.13;1.40;;;9.30;99.90;;;;;;5071401;28;20028;-50
2023/04/13 08:33:55;;;;;;;5.33;1.23;;;9.30;99.90;;;;;;5071165;28;20043;-48
2023/04/13 08:36:21;;;;;;;9.57;1.70;;;9.20;99.90;;;;;;5071187;28;20127;-48
2023/04/13 08:38:52;;;;;;;6.00;1.20;;;9.20;99.90;;;;;;5071347;28;20040;-47
2023/04/13 08:41:20;;;;;;;8.43;1.80;;;9.20;99.90;;;;;;5071394;28;20029;-47
2023/04/13 08:43:49;;;;;;;;;;;9.10;99.90;;;;;;5070266;28;20060;-47
2023/04/13 08:46:20;;;;;;;5.93;1.70;;;9.10;99.90;;;;;;5071170;28;19912;-48
2023/04/13 08:48:51;;;;;;;5.23;1.50;;;9.20;99.90;;;;;;5071094;28;20024;-48
2023/04/13 08:51:20;;;;;;;6.90;2.10;;;9.20;99.90;;;;;;5071323;28;20485;-47
2023/04/13 08:53:45;;;;;;;4.73;1.50;;;9.30;99.90;;;;;;5072373;28;20127;-51
2023/04/13 08:56:14;;;;;;;6.50;1.43;;;9.30;99.90;;;;;;5071072;28;20068;-47
2023/04/13 08:58:42;;;;;;;9.23;1.60;;;9.30;99.90;;;;;;5070860;28;20030;-47
2023/04/13 09:01:12;;;;;;;8.87;2.03;;;9.40;99.90;;;;;;5072457;28;20039;-48
2023/04/13 09:04:01;;;;;;;10.27;2.00;;;9.40;99.90;;;;;;5070786;28;20081;-50
2023/04/13 09:06:33;;;;;;;5.15;1.42;;;9.50;99.90;;;;;;5070783;28;20448;-47
2023/04/13 09:09:08;;;;;;;11.70;2.17;;;9.50;99.90;;;;;;5070861;28;20444;-50
2023/04/13 09:11:35;;;;;;;5.67;1.53;;;9.40;99.90;;;;;;5072133;28;20021;-46
2023/04/13 09:14:01;;;;;;;5.97;1.40;;;9.50;99.90;;;;;;5070309;28;20078;-47
2023/04/13 09:16:27;;;;;;;5.53;1.77;;;9.60;99.90;;;;;;5070480;28;20028;-50
2023/04/13 09:19:00;;;;;;;6.97;2.03;;;9.80;99.90;;;;;;5070771;28;20028;-48
2023/04/13 09:21:41;;;;;;;13.10;1.93;;;10.10;99.90;;;;;;5072109;28;20082;-51
2023/04/13 09:24:08;;;;;;;7.53;1.80;;;10.50;99.90;;;;;;5070409;28;20437;-50
2023/04/13 09:26:45;;;;;;;9.73;1.77;;;10.80;99.90;;;;;;5071767;28;20453;-48
2023/04/13 09:29:17;;;;;;;7.97;2.00;;;11.10;99.90;;;;;;5072032;28;20025;-50
2023/04/13 09:31:44;;;;;;;6.40;1.87;;;11.10;99.90;;;;;;5071805;28;20035;-48
2023/04/13 09:34:10;;;;;;;12.03;2.00;;;11.20;99.90;;;;;;5071476;28;20472;-51
2023/04/13 09:36:36;;;;;;;10.27;2.07;;;11.30;99.90;;;;;;5071464;28;20036;-49
2023/04/13 09:39:03;;;;;;;8.53;2.20;;;11.20;99.90;;;;;;5070130;28;20449;-52
2023/04/13 09:41:37;;;;;;;10.77;2.53;;;11.00;99.90;;;;;;5071736;28;20060;-48
2023/04/13 09:44:21;;;;;;;11.53;2.33;;;10.80;99.90;;;;;;5071143;28;20465;-49
2023/04/13 09:47:16;;;;;;;7.03;1.60;;;10.70;99.90;;;;;;5071122;28;20039;-53
2023/04/13 09:49:42;;;;;;;5.30;1.50;;;10.50;99.90;;;;;;5062111;28;20145;-48
2023/04/13 09:52:23;;;;;;;8.60;2.00;;;10.40;99.90;;;;;;5071198;28;20020;-50
2023/04/13 09:54:51;;;;;;;8.77;2.60;;;10.40;99.90;;;;;;5070618;28;20090;-49
2023/04/13 09:57:27;;;;;;;9.90;2.03;;;10.30;99.90;;;;;;5070975;28;20039;-51
2023/04/13 09:59:54;;;;;;;7.13;1.87;;;10.30;99.90;;;;;;5071029;28;20036;-50
2023/04/13 10:02:21;;;;;;;7.67;1.60;;;10.30;99.90;;;;;;5071221;28;20082;-48
2023/04/13 10:04:47;;;;;;;8.23;1.40;;;10.40;99.90;;;;;;5070715;28;20504;-49
2023/04/13 10:07:12;;;;;;;7.70;1.80;;;10.50;99.90;;;;;;5070787;28;20025;-48
2023/04/13 10:09:40;;;;;;;6.77;1.50;;;10.50;99.90;;;;;;5070967;28;20336;-51
2023/04/13 10:12:10;;;;;;;12.03;1.80;;;10.40;99.90;;;;;;5070816;28;20074;-51
2023/04/13 10:14:39;;;;;;;7.20;1.43;;;10.50;99.90;;;;;;5070570;28;20033;-50
2023/04/13 10:17:46;;;;;;;9.43;1.70;;;10.60;99.90;;;;;;5070842;28;20074;-50
2023/04/13 10:20:13;;;;;;;10.63;1.80;;;10.50;99.90;;;;;;5070595;28;20017;-47
2023/04/13 10:22:44;;;;;;;8.30;1.90;;;10.50;99.90;;;;;;5069165;28;20405;-47
2023/04/13 10:25:17;;;;;;;6.70;1.70;;;10.40;99.90;;;;;;5070485;28;20028;-49
2023/04/13 10:27:43;;;;;;;8.50;1.83;;;10.50;99.90;;;;;;5070595;28;20030;-47
2023/04/13 10:30:15;;;;;;;10.87;1.90;;;10.40;99.90;;;;;;5070552;28;20073;-48
2023/04/13 10:32:41;;;;;;;11.70;1.87;;;10.50;99.90;;;;;;5070486;28;20070;-48
2023/04/13 10:35:11;;;;;;;13.10;2.20;;;10.60;99.90;;;;;;5070246;28;20025;-49
2023/04/13 10:37:42;;;;;;;14.40;2.10;;;10.60;99.90;;;;;;5070406;28;20123;-49
2023/04/13 10:40:09;;;;;;;10.30;2.00;;;10.70;99.90;;;;;;5070651;28;20047;-50
2023/04/13 10:42:43;;;;;;;13.07;2.07;;;10.70;99.90;;;;;;5070351;28;20039;-48
2023/04/13 10:45:25;;;;;;;9.57;2.50;;;10.90;99.90;;;;;;5070223;28;20032;-48
2023/04/13 10:47:52;;;;;;;9.30;2.10;;;11.40;99.90;;;;;;5070302;28;20031;-51
2023/04/13 10:50:21;;;;;;;10.07;2.00;;;11.50;99.90;;;;;;5070327;28;20024;-52
2023/04/13 10:52:58;;;;;;;10.93;2.05;;;11.60;99.90;;;;;;5070297;28;20553;-52
2023/04/13 10:55:26;;;;;;;8.50;2.10;;;11.70;99.90;;;;;;5070196;28;20032;-52
2023/04/13 10:57:57;;;;;;;8.15;1.55;;;11.70;99.90;;;;;;5070062;28;20079;-52
2023/04/13 11:00:29;;;;;;;12.10;2.23;;;11.90;99.90;;;;;;5070146;28;20036;-53
2023/04/13 11:02:56;;;;;;;7.17;2.03;;;11.70;99.90;;;;;;5070140;28;20033;-52
2023/04/13 11:05:24;;;;;;;13.00;2.33;;;11.70;99.90;;;;;;5070177;28;20097;-50
2023/04/13 11:07:50;;;;;;;9.77;1.97;;;11.50;99.90;;;;;;5072859;28;20029;-48
2023/04/13 11:10:27;;;;;;;7.63;1.80;;;11.50;99.90;;;;;;5074325;28;20078;-49
2023/04/13 11:12:54;;;;;;;10.77;2.00;;;11.60;99.90;;;;;;5074208;28;20047;-50
2023/04/13 11:15:31;;;;;;;11.90;2.23;;;11.70;99.90;;;;;;5074060;28;20389;-50
2023/04/13 11:17:58;;;;;;;16.90;2.10;;;11.80;99.90;;;;;;5055879;28;20389;-49
2023/04/13 11:20:38;;;;;;;6.80;1.60;;;12.00;99.90;;;;;;5074251;28;20306;-48
2023/04/13 11:23:06;;;;;;;12.07;2.10;;;11.90;99.90;;;;;;5073897;28;20051;-48
2023/04/13 11:25:34;;;;;;;11.53;2.20;;;11.90;99.90;;;;;;5073844;28;20484;-51
2023/04/13 11:28:02;;;;;;;7.15;1.50;;;11.90;99.90;;;;;;5073741;28;20063;-49
2023/04/13 11:30:29;;;;;;;16.67;2.47;;;12.10;99.90;;;;;;5073955;28;20441;-52
2023/04/13 11:32:58;;;;;;;8.20;1.70;;;12.20;99.90;;;;;;5073875;28;20484;-50
2023/04/13 11:35:24;;;;;;;;;;;12.30;99.90;;;;;;5074283;28;20032;-50
2023/04/13 11:37:52;;;;;;;12.73;2.03;;;12.30;99.90;;;;;;5073635;28;19919;-52
2023/04/13 11:40:26;;;;;;;10.95;1.50;;;12.20;99.90;;;;;;5073856;28;20029;-50
2023/04/13 11:42:57;;;;;;;8.98;1.67;;;12.30;99.90;;;;;;5073891;28;20048;-51
2023/04/13 11:45:25;;;;;;;8.90;1.73;;;12.30;99.90;;;;;;5073440;28;20032;-55
2023/04/13 11:47:52;;;;;;;11.88;3.42;;;12.40;99.90;;;;;;5073541;28;20512;-52
2023/04/13 11:50:19;;;;;;;9.85;1.90;;;12.40;99.90;;;;;;5073454;28;20404;-50
2023/04/13 11:52:46;;;;;;;7.93;1.98;;;12.50;99.90;;;;;;5073545;28;20021;-50
2023/04/13 11:55:14;;;;;;;9.02;2.20;;;12.60;99.90;;;;;;5073245;28;20032;-50
2023/04/13 11:57:40;;;;;;;7.97;1.30;;;12.80;99.90;;;;;;5073027;28;20037;-48
2023/04/13 12:00:20;;;;;;;6.00;1.45;;;13.00;99.90;;;;;;5073257;28;20036;-48
2023/04/13 12:02:49;;;;;;;9.65;1.83;;;13.40;99.90;;;;;;5073176;28;20165;-50
2023/04/13 12:05:21;;;;;;;7.97;1.40;;;13.40;99.90;;;;;;5073049;28;20431;-52
2023/04/13 12:07:47;;;;;;;9.60;1.95;;;13.50;99.90;;;;;;5072934;28;20520;-49
2023/04/13 12:10:20;;;;;;;9.30;2.15;;;13.70;99.90;;;;;;5073199;28;20029;-47
2023/04/13 12:12:54;;;;;;;9.25;2.22;;;14.00;99.90;;;;;;5073245;28;20033;-52
2023/04/13 12:15:23;;;;;;;4.43;1.30;;;14.00;99.90;;;;;;5073198;28;20047;-52
2023/04/13 12:17:53;;;;;;;6.55;1.45;;;14.10;99.40;;;;;;5072731;28;20382;-49
2023/04/13 12:20:19;;;;;;;8.38;1.83;;;14.40;99.70;;;;;;5073152;28;20029;-50
2023/04/13 12:22:44;;;;;;;6.25;1.15;;;14.60;99.90;;;;;;5072699;28;20501;-50
2023/04/13 12:25:14;;;;;;;5.95;1.30;;;14.60;98.60;;;;;;5072607;28;20024;-53
2023/04/13 12:27:41;;;;;;;8.70;1.50;;;14.50;98.70;;;;;;5073188;28;20021;-53
2023/04/13 12:30:16;;;;;;;7.88;1.60;;;14.40;99.80;;;;;;5072755;28;20029;-48
2023/04/13 12:32:45;;;;;;;6.93;1.70;;;14.40;98.60;;;;;;5072943;28;20028;-48
2023/04/13 12:35:12;;;;;;;8.38;1.88;;;14.50;98.00;;;;;;5072667;28;20112;-52
2023/04/13 12:37:45;;;;;;;7.95;1.55;;;14.50;97.80;;;;;;5072541;28;20028;-52
2023/04/13 12:40:15;;;;;;;6.32;1.50;;;14.30;98.40;;;;;;5072530;28;20070;-51
2023/04/13 12:42:48;;;;;;;7.57;1.90;;;14.40;98.10;;;;;;5072774;28;20028;-49
2023/04/13 12:45:15;;;;;;;10.00;2.20;;;14.40;98.70;;;;;;5072382;28;20032;-47
2023/04/13 12:47:41;;;;;;;7.55;1.58;;;14.50;98.20;;;;;;5072518;28;20033;-48
2023/04/13 12:50:10;;;;;;;6.88;1.50;;;14.80;98.20;;;;;;5072520;28;20035;-53
2023/04/13 12:52:39;;;;;;;8.43;1.70;;;14.90;97.30;;;;;;5072361;28;20428;-52
2023/04/13 12:55:06;;;;;;;7.43;2.00;;;15.00;98.00;;;;;;5072214;28;20098;-51
2023/04/13 12:57:32;;;;;;;6.75;1.85;;;14.90;96.30;;;;;;5072266;28;20394;-51
2023/04/13 12:59:57;;;;;;;5.68;1.63;;;14.90;95.90;;;;;;5072343;28;20029;-51
2023/04/13 13:02:25;;;;;;;5.95;1.55;;;14.70;95.80;;;;;;5072262;28;20021;-51
2023/04/13 13:04:52;;;;;;;8.25;1.65;;;14.60;95.90;;;;;;5071960;28;20033;-48